Time;durP1;ratioP1;P1;durP2;ratioP2;P2;SDS_P1;SDS_P2;PMS_P1;PMS_P2;Temp;Humidity;BMP_temperature;BMP_pressure;BME280_temperature;BME280_humidity;BME280_pressure;Samples;Min_cycle;Max_cycle;Signal;HPM_P1;HPM_P2
2023/01/26 00:02:02;;;;;;;;;;;;;;;1.21;82.74;102602.66;4997927;28;19930;-48
2023/01/26 00:04:27;;;;;;;;;;;;;;;1.23;82.80;102602.84;5001124;28;20279;-44
2023/01/26 00:06:52;;;;;;;;;;;;;;;1.24;83.06;102607.16;4998718;28;19936;-47
2023/01/26 00:09:18;;;;;;;;;;;;;;;1.22;82.78;102596.88;4984853;28;19929;-45
2023/01/26 00:11:43;;;;;;;;;;;;;;;1.22;83.01;102591.81;4999779;28;19995;-44
2023/01/26 00:14:08;;;;;;;;;;;;;;;1.22;83.06;102590.91;4973215;28;19922;-48
2023/01/26 00:16:33;;;;;;;;;;;;;;;1.21;83.26;102590.00;4988946;28;20569;-48
2023/01/26 00:18:59;;;;;;;;;;;;;;;1.22;83.46;102588.38;4996871;28;20457;-48
2023/01/26 00:21:24;;;;;;;;;;;;;;;1.21;83.23;102584.94;4986633;28;19954;-44
2023/01/26 00:23:50;;;;;;;;;;;;;;;1.20;83.31;102593.28;4969205;28;20393;-44
2023/01/26 00:26:17;;;;;;;;;;;;;;;1.19;83.40;102588.09;4960589;28;20385;-46
2023/01/26 00:28:42;;;;;;;;;;;;;;;1.19;83.20;102581.38;4973615;28;20048;-49
2023/01/26 00:31:15;;;;;;;;;;;;;;;1.19;83.33;102580.47;4960908;28;20053;-46
2023/01/26 00:33:41;;;;;;;;;;;;;;;1.17;83.27;102577.81;4968207;28;19918;-48
2023/01/26 00:36:06;;;;;;;;;;;;;;;1.17;83.34;102571.84;4963970;28;19989;-49
2023/01/26 00:38:31;;;;;;;;;;;;;;;1.16;83.46;102575.16;4972799;28;20501;-47
2023/01/26 00:40:57;;;;;;;;;;;;;;;1.18;83.48;102568.56;4976683;28;19922;-49
2023/01/26 00:43:22;;;;;;;;;;;;;;;1.19;83.62;102568.72;4972560;28;19956;-46
2023/01/26 00:45:47;;;;;;;;;;;;;;;1.21;83.51;102566.31;4965963;28;19933;-50
2023/01/26 00:48:13;;;;;;;;;;;;;;;1.19;83.47;102557.69;4969324;28;19922;-47
2023/01/26 00:50:38;;;;;;;;;;;;;;;1.16;83.60;102560.84;4964967;28;19928;-49
2023/01/26 00:53:03;;;;;;;;;;;;;;;1.15;83.74;102551.41;4976575;28;19929;-49
2023/01/26 00:55:31;;;;;;;;;;;;;;;1.14;83.83;102552.19;4968476;28;20361;-48
2023/01/26 00:57:59;;;;;;;;;;;;;;;1.14;83.71;102548.75;4964855;28;19922;-48
2023/01/26 01:00:25;;;;;;;;;;;;;;;1.13;84.14;102546.97;4968187;28;19928;-49
2023/01/26 01:02:50;;;;;;;;;;;;;;;1.12;83.72;102548.63;4969060;28;19922;-45
2023/01/26 01:05:15;;;;;;;;;;;;;;;1.11;84.07;102536.72;4977866;28;20391;-48
2023/01/26 01:07:40;;;;;;;;;;;;;;;1.11;84.19;102540.88;4970601;28;20369;-48
2023/01/26 01:10:07;;;;;;;;;;;;;;;1.13;84.16;102541.91;4970468;28;19918;-47
2023/01/26 01:12:32;;;;;;;;;;;;;;;1.13;84.00;102534.31;4967625;28;19937;-50
2023/01/26 01:14:57;;;;;;;;;;;;;;;1.15;84.14;102540.41;4966430;28;19922;-44
2023/01/26 01:17:23;;;;;;;;;;;;;;;1.14;84.07;102542.03;4974247;28;20009;-47
2023/01/26 01:19:48;;;;;;;;;;;;;;;1.15;84.25;102541.28;4971066;28;19968;-49
2023/01/26 01:22:13;;;;;;;;;;;;;;;1.14;84.15;102536.97;4971777;28;19954;-47
2023/01/26 01:24:38;;;;;;;;;;;;;;;1.15;84.29;102545.47;4971327;28;19922;-48
2023/01/26 01:27:03;;;;;;;;;;;;;;;1.16;84.23;102542.22;4965464;28;19926;-48
2023/01/26 01:29:29;;;;;;;;;;;;;;;1.16;84.46;102539.69;4971963;28;19919;-45
2023/01/26 01:31:54;;;;;;;;;;;;;;;1.17;84.33;102539.81;4966076;28;20306;-44
2023/01/26 01:34:19;;;;;;;;;;;;;;;1.19;84.21;102539.94;4971702;28;19922;-48
2023/01/26 01:36:44;;;;;;;;;;;;;;;1.20;84.25;102544.25;4966182;28;19929;-50
2023/01/26 01:39:10;;;;;;;;;;;;;;;1.20;84.15;102534.13;4972051;28;19999;-46
2023/01/26 01:41:35;;;;;;;;;;;;;;;1.20;84.28;102546.78;4965132;28;19922;-46
2023/01/26 01:44:12;;;;;;;;;;;;;;;1.20;84.44;102539.19;4968841;28;20314;-48
2023/01/26 01:46:39;;;;;;;;;;;;;;;1.22;84.17;102545.31;4968397;28;19929;-47
2023/01/26 01:49:07;;;;;;;;;;;;;;;1.23;84.28;102544.56;4971546;28;20045;-49
2023/01/26 01:51:34;;;;;;;;;;;;;;;1.22;84.12;102543.66;4980368;28;19926;-48
2023/01/26 01:54:03;;;;;;;;;;;;;;;1.24;84.30;102548.88;4971317;28;19921;-46
2023/01/26 01:56:29;;;;;;;;;;;;;;;1.24;84.33;102539.63;4969126;28;19921;-49
2023/01/26 01:58:55;;;;;;;;;;;;;;;1.25;84.25;102536.31;4963935;28;19922;-45
2023/01/26 02:01:21;;;;;;;;;;;;;;;1.26;84.39;102543.19;4969043;28;20007;-48
2023/01/26 02:03:47;;;;;;;;;;;;;;;1.29;84.29;102537.50;4970276;28;19996;-43
2023/01/26 02:06:14;;;;;;;;;;;;;;;1.29;84.27;102522.31;4967968;28;20416;-46
2023/01/26 02:08:53;;;;;;;;;;;;;;;1.29;84.28;102528.25;5006568;28;19916;-48
2023/01/26 02:11:24;;;;;;;;;;;;;;;1.29;84.27;102518.13;4973134;28;19919;-48
2023/01/26 02:13:50;;;;;;;;;;;;;;;1.29;84.55;102517.25;4973874;28;19980;-48
2023/01/26 02:16:16;;;;;;;;;;;;;;;1.30;84.49;102519.03;4971619;28;20430;-48
2023/01/26 02:18:41;;;;;;;;;;;;;;;1.29;84.73;102519.78;4976413;28;19921;-48
2023/01/26 02:21:08;;;;;;;;;;;;;;;1.25;84.90;102510.09;4971462;28;20001;-47
2023/01/26 02:23:52;;;;;;;;;;;;;;;1.25;84.81;102505.91;4973132;28;20313;-46
2023/01/26 02:26:26;;;;;;;;;;;;;;;1.27;84.93;102511.13;4963957;28;19940;-48
2023/01/26 02:28:53;;;;;;;;;;;;;;;1.27;84.99;102511.13;4965340;28;20286;-44
2023/01/26 02:31:21;;;;;;;;;;;;;;;1.28;85.02;102512.94;4969046;28;19922;-49
2023/01/26 02:33:46;;;;;;;;;;;;;;;1.30;85.31;102509.78;4971569;28;19914;-49
2023/01/26 02:36:24;;;;;;;;;;;;;;;1.32;84.96;102505.72;4969460;28;19930;-47
2023/01/26 02:38:53;;;;;;;;;;;;;;;1.31;85.14;102501.41;4970206;28;20354;-50
2023/01/26 02:42:37;;;;;;;;;;;;;;;1.32;85.07;102498.13;4960714;28;19918;-46
2023/01/26 02:44:05;;;;;;;;;;;;;;;1.34;85.04;102505.88;4985317;28;19963;-45
2023/01/26 02:46:30;;;;;;;;;;;;;;;1.36;85.31;102503.47;4986162;28;19926;-48
2023/01/26 02:51:39;;;;;;;;;;;;;;;1.34;85.33;102496.63;4965783;28;19928;-46
2023/01/26 02:54:05;;;;;;;;;;;;;;;1.35;85.42;102502.59;4971952;28;19922;-47
2023/01/26 02:56:30;;;;;;;;;;;;;;;1.35;85.49;102500.06;4970235;28;19983;-46
2023/01/26 02:58:55;;;;;;;;;;;;;;;1.37;85.18;102496.00;4967819;28;19914;-45
2023/01/26 03:01:20;;;;;;;;;;;;;;;1.37;85.33;102496.00;4970677;28;19925;-46
2023/01/26 03:03:46;;;;;;;;;;;;;;;1.37;85.23;102495.13;4971704;28;19922;-48
2023/01/26 03:06:11;;;;;;;;;;;;;;;1.37;85.46;102497.66;4962563;28;19933;-48
2023/01/26 03:08:37;;;;;;;;;;;;;;;1.37;85.46;102496.00;4978444;28;20345;-46
2023/01/26 03:11:03;;;;;;;;;;;;;;;1.37;85.47;102495.13;4967492;28;19989;-50
2023/01/26 03:13:28;;;;;;;;;;;;;;;1.36;85.37;102494.22;4965944;28;19925;-48
2023/01/26 03:15:53;;;;;;;;;;;;;;;1.37;85.60;102495.13;4964692;28;19975;-46
2023/01/26 03:29:18;;;;;;;;;;;;;;;1.43;85.73;102494.03;4963371;28;19944;-51
2023/01/26 03:31:43;;;;;;;;;;;;;;;1.44;85.49;102490.75;4963549;28;19926;-47
2023/01/26 03:34:08;;;;;;;;;;;;;;;1.46;85.75;102495.97;4973317;28;20408;-47
2023/01/26 03:36:33;;;;;;;;;;;;;;;1.45;85.78;102484.91;4959437;28;19922;-46
2023/01/26 03:38:58;;;;;;;;;;;;;;;1.47;85.84;102487.59;4971189;28;19928;-48
2023/01/26 03:57:48;;;;;;;;;;;;;;;1.52;85.63;102477.13;4971120;28;19937;-48
2023/01/26 04:00:14;;;;;;;;;;;;;;;1.52;85.66;102477.13;4971244;28;20009;-45
2023/01/26 04:08:19;;;;;;;;;;;;;;;1.52;85.89;102484.75;4969975;28;19933;-47
2023/01/26 04:10:44;;;;;;;;;;;;;;;1.53;85.71;102486.50;4968940;28;19929;-49
2023/01/26 04:21:28;;;;;;;;;;;;;;;1.58;86.00;102476.78;4969077;28;19971;-48
2023/01/26 04:23:55;;;;;;;;;;;;;;;1.59;85.83;102476.03;4966316;28;19930;-50
2023/01/26 04:26:21;;;;;;;;;;;;;;;1.60;85.89;102480.34;4973631;28;19961;-49
2023/01/26 04:28:46;;;;;;;;;;;;;;;1.61;86.02;102483.00;4969707;28;19992;-47
2023/01/26 04:31:11;;;;;;;;;;;;;;;1.61;85.89;102477.94;4974005;28;19925;-48
2023/01/26 04:33:36;;;;;;;;;;;;;;;1.61;85.74;102480.47;4975236;28;19925;-48
2023/01/26 04:36:03;;;;;;;;;;;;;;;1.64;85.70;102482.41;4977524;28;19953;-48
2023/01/26 04:38:28;;;;;;;;;;;;;;;1.66;85.65;102487.63;4972566;28;20308;-48
2023/01/26 04:40:54;;;;;;;;;;;;;;;1.68;85.78;102488.63;4974384;28;19922;-47
2023/01/26 04:43:19;;;;;;;;;;;;;;;1.67;85.71;102482.66;4978465;28;19914;-47
2023/01/26 04:45:44;;;;;;;;;;;;;;;1.69;85.44;102487.88;4970375;28;19926;-47
2023/01/26 04:48:09;;;;;;;;;;;;;;;1.70;85.65;102480.44;4970740;28;19926;-48
2023/01/26 04:50:35;;;;;;;;;;;;;;;1.71;85.40;102483.84;4966761;28;19922;-50
2023/01/26 04:53:00;;;;;;;;;;;;;;;1.71;85.42;102484.75;4974584;28;19926;-48
2023/01/26 04:55:25;;;;;;;;;;;;;;;1.73;85.79;102477.25;4970566;28;19948;-48
2023/01/26 04:57:50;;;;;;;;;;;;;;;1.74;85.43;102481.56;4974083;28;19922;-48
2023/01/26 05:00:16;;;;;;;;;;;;;;;1.76;85.47;102480.06;4972865;28;19975;-49
2023/01/26 05:02:41;;;;;;;;;;;;;;;1.75;85.71;102478.28;4970679;28;19918;-48
2023/01/26 05:05:06;;;;;;;;;;;;;;;1.75;85.76;102474.09;4986495;28;19926;-49
2023/01/26 05:07:32;;;;;;;;;;;;;;;1.76;85.60;102474.97;4971321;28;19926;-49
2023/01/26 05:09:57;;;;;;;;;;;;;;;1.78;85.51;102470.97;4973441;28;19947;-49
2023/01/26 05:12:35;;;;;;;;;;;;;;;1.78;85.67;102468.41;4987514;28;20000;-49
2023/01/26 05:15:00;;;;;;;;;;;;;;;1.79;85.61;102468.53;4971136;28;19922;-45
2023/01/26 05:17:25;;;;;;;;;;;;;;;1.81;85.65;102466.13;5003091;28;20028;-49
2023/01/26 05:19:50;;;;;;;;;;;;;;;1.79;85.74;102468.53;5031685;28;20385;-48
2023/01/26 05:22:16;;;;;;;;;;;;;;;1.81;85.81;102474.63;5003638;28;20428;-49
2023/01/26 05:24:41;;;;;;;;;;;;;;;1.81;85.65;102471.22;5013880;28;20383;-48
2023/01/26 05:27:21;;;;;;;;;;;;;;;1.83;85.64;102474.78;4997656;28;19952;-48
2023/01/26 05:29:47;;;;;;;;;;;;;;;1.83;85.64;102473.16;5004538;28;20364;-48
2023/01/26 05:32:12;;;;;;;;;;;;;;;1.85;85.79;102479.22;5010080;28;19957;-43
2023/01/26 05:34:37;;;;;;;;;;;;;;;1.83;85.62;102474.78;4992620;28;19930;-48
2023/01/26 05:37:03;;;;;;;;;;;;;;;1.83;85.63;102477.34;5014646;28;19932;-46
2023/01/26 05:39:28;;;;;;;;;;;;;;;1.83;85.68;102480.75;5009592;28;19933;-48
2023/01/26 05:41:56;;;;;;;;;;;;;;;1.83;85.47;102475.69;5015206;28;19922;-44
2023/01/26 05:44:23;;;;;;;;;;;;;;;1.84;85.54;102471.50;5000422;28;20014;-49
2023/01/26 05:46:49;;;;;;;;;;;;;;;1.86;85.42;102480.13;5018613;28;19920;-48
2023/01/26 05:49:14;;;;;;;;;;;;;;;1.84;85.31;102476.56;4999350;28;19935;-47
2023/01/26 05:51:39;;;;;;;;;;;;;;;1.85;85.56;102481.78;5018424;28;19924;-46
2023/01/26 05:54:04;;;;;;;;;;;;;;;1.85;85.73;102479.22;4992329;28;19925;-45
2023/01/26 05:56:30;;;;;;;;;;;;;;;1.87;85.63;102481.91;5007790;28;19922;-46
2023/01/26 05:58:55;;;;;;;;;;;;;;;1.88;85.68;102471.00;5016119;28;19934;-46
2023/01/26 06:01:20;;;;;;;;;;;;;;;1.88;85.77;102477.00;5010075;28;19928;-44
2023/01/26 06:03:45;;;;;;;;;;;;;;;1.88;85.51;102477.00;5002125;28;20352;-49
2023/01/26 06:06:10;;;;;;;;;;;;;;;1.87;85.97;102482.78;5008681;28;19931;-48
2023/01/26 06:08:36;;;;;;;;;;;;;;;1.89;86.01;102488.03;5018183;28;20072;-49
2023/01/26 06:11:01;;;;;;;;;;;;;;;1.90;85.87;102491.44;4999407;28;20402;-48
2023/01/26 06:13:26;;;;;;;;;;;;;;;1.90;86.09;102491.44;4996981;28;19926;-46
2023/01/26 06:15:51;;;;;;;;;;;;;;;1.91;86.25;102493.22;4978445;28;19945;-45
2023/01/26 06:18:17;;;;;;;;;;;;;;;1.91;86.08;102501.72;4966898;28;19925;-46
2023/01/26 06:20:42;;;;;;;;;;;;;;;1.90;86.10;102493.97;4964772;28;19927;-49
2023/01/26 06:23:10;;;;;;;;;;;;;;;1.91;86.13;102493.22;4968302;28;19922;-48
2023/01/26 06:25:37;;;;;;;;;;;;;;;1.90;86.07;102488.91;4970921;28;20386;-49
2023/01/26 06:28:02;;;;;;;;;;;;;;;1.92;86.23;102489.94;4968680;28;19930;-47
2023/01/26 06:30:28;;;;;;;;;;;;;;;1.94;86.35;102489.28;4966051;28;19929;-49
2023/01/26 06:32:53;;;;;;;;;;;;;;;1.97;86.30;102489.56;4966317;28;20005;-43
2023/01/26 06:35:18;;;;;;;;;;;;;;;1.97;86.39;102494.66;4964394;28;20449;-47
2023/01/26 06:37:44;;;;;;;;;;;;;;;2.00;85.99;102499.09;4967709;28;19946;-48
2023/01/26 06:40:10;;;;;;;;;;;;;;;2.02;86.21;102497.59;4969196;28;19918;-50
2023/01/26 06:42:35;;;;;;;;;;;;;;;2.00;86.30;102499.09;4974865;28;20429;-47
2023/01/26 06:45:01;;;;;;;;;;;;;;;2.01;86.04;102500.91;4961315;28;19938;-48
2023/01/26 06:47:26;;;;;;;;;;;;;;;2.02;86.03;102503.56;4974133;28;19926;-48
2023/01/26 06:49:51;;;;;;;;;;;;;;;2.02;86.10;102508.63;4966650;28;19918;-49
2023/01/26 06:52:34;;;;;;;;;;;;;;;2.02;86.05;102510.28;4981533;28;20085;-47
2023/01/26 06:55:00;;;;;;;;;;;;;;;2.02;86.11;102505.22;4969264;28;20291;-49
2023/01/26 06:57:25;;;;;;;;;;;;;;;2.01;86.09;102499.25;4976277;28;19920;-45
2023/01/26 06:59:51;;;;;;;;;;;;;;;2.04;86.17;102506.22;4972729;28;19952;-49
2023/01/26 07:02:20;;;;;;;;;;;;;;;2.06;85.99;102512.31;4972657;28;19919;-48
2023/01/26 07:04:45;;;;;;;;;;;;;;;2.06;86.21;102509.78;4963264;28;19961;-45
2023/01/26 07:07:11;;;;;;;;;;;;;;;2.06;85.97;102510.69;4971176;28;19956;-50
2023/01/26 07:09:36;;;;;;;;;;;;;;;2.07;86.31;102511.59;4975025;28;20474;-45
2023/01/26 07:12:01;;;;;;;;;;;;;;;2.10;86.31;102522.00;4974659;28;19964;-48
2023/01/26 07:14:26;;;;;;;;;;;;;;;2.09;86.32;102515.16;4976790;28;19983;-47
2023/01/26 07:16:52;;;;;;;;;;;;;;;2.11;86.27;102521.22;4974279;28;19957;-48
2023/01/26 07:19:17;;;;;;;;;;;;;;;2.12;85.90;102512.88;4976833;28;19918;-48
2023/01/26 07:21:42;;;;;;;;;;;;;;;2.14;86.29;102516.44;4975902;28;19933;-49
2023/01/26 07:24:08;;;;;;;;;;;;;;;2.18;86.06;102520.13;4969722;28;19915;-47
2023/01/26 07:26:33;;;;;;;;;;;;;;;2.16;85.92;102514.94;4971648;28;19930;-47
2023/01/26 07:28:58;;;;;;;;;;;;;;;2.19;85.93;102514.31;4971757;28;19933;-46
2023/01/26 07:31:23;;;;;;;;;;;;;;;2.19;86.14;102512.66;4974417;28;19925;-43
2023/01/26 07:33:49;;;;;;;;;;;;;;;2.18;86.16;102515.94;4970496;28;19918;-50
2023/01/26 07:36:14;;;;;;;;;;;;;;;2.19;86.20;102516.84;4969789;28;19922;-47
2023/01/26 07:38:39;;;;;;;;;;;;;;;2.19;86.26;102510.13;4970519;28;20052;-48
2023/01/26 07:41:10;;;;;;;;;;;;;;;2.19;86.15;102514.31;4975007;28;20392;-47
2023/01/26 07:43:36;;;;;;;;;;;;;;;2.19;86.21;102521.94;4968310;28;19914;-47
2023/01/26 07:46:01;;;;;;;;;;;;;;;2.18;86.09;102518.47;4969821;28;19929;-49
2023/01/26 07:48:28;;;;;;;;;;;;;;;2.19;86.21;102524.47;4974827;28;20010;-45
2023/01/26 07:50:56;;;;;;;;;;;;;;;2.19;86.33;102525.38;4973550;28;19933;-45
2023/01/26 07:53:21;;;;;;;;;;;;;;;2.19;86.36;102529.56;4967350;28;19994;-46
2023/01/26 07:55:48;;;;;;;;;;;;;;;2.20;86.46;102534.75;4971128;28;20009;-49
2023/01/26 07:58:13;;;;;;;;;;;;;;;2.20;86.41;102536.41;4994175;28;19927;-47
2023/01/26 08:00:38;;;;;;;;;;;;;;;2.22;86.56;102537.41;4971259;28;19921;-53
2023/01/26 08:03:04;;;;;;;;;;;;;;;2.25;86.44;102540.25;4967418;28;19922;-49
2023/01/26 08:05:30;;;;;;;;;;;;;;;2.25;86.37;102538.59;4980474;28;20379;-52
2023/01/26 08:07:58;;;;;;;;;;;;;;;2.26;86.63;102549.63;4970478;28;19924;-44
2023/01/26 08:10:24;;;;;;;;;;;;;;;2.26;86.68;102549.63;4972592;28;19932;-49
2023/01/26 08:12:49;;;;;;;;;;;;;;;2.27;86.64;102543.78;4972039;28;19918;-49
2023/01/26 08:15:14;;;;;;;;;;;;;;;2.27;86.55;102551.41;4972725;28;20032;-46
2023/01/26 08:17:40;;;;;;;;;;;;;;;2.29;86.42;102545.69;4966829;28;19965;-46
2023/01/26 08:20:05;;;;;;;;;;;;;;;2.30;86.50;102549.13;4972140;28;20366;-49
2023/01/26 08:22:30;;;;;;;;;;;;;;;2.30;86.50;102547.47;4976111;28;19926;-49
2023/01/26 08:24:55;;;;;;;;;;;;;;;2.31;86.66;102541.66;4975971;28;19929;-49
2023/01/26 08:27:21;;;;;;;;;;;;;;;2.34;86.73;102548.66;4973560;28;20013;-49
2023/01/26 08:29:47;;;;;;;;;;;;;;;2.37;86.47;102547.28;4971208;28;19925;-49
2023/01/26 08:32:12;;;;;;;;;;;;;;;2.37;86.67;102548.94;4972041;28;20009;-44
2023/01/26 08:34:37;;;;;;;;;;;;;;;2.35;86.36;102550.44;4968527;28;19929;-45
2023/01/26 08:37:02;;;;;;;;;;;;;;;2.36;86.73;102553.09;4963382;28;19926;-51
2023/01/26 08:39:28;;;;;;;;;;;;;;;2.36;86.63;102552.19;4972772;28;19967;-48
2023/01/26 08:41:54;;;;;;;;;;;;;;;2.37;86.80;102559.97;4997733;28;19973;-49
2023/01/26 08:44:19;;;;;;;;;;;;;;;2.39;86.83;102563.53;4980939;28;19961;-48
2023/01/26 08:46:44;;;;;;;;;;;;;;;2.40;86.69;102556.81;4985204;28;19926;-48
2023/01/26 08:49:10;;;;;;;;;;;;;;;2.41;86.84;102558.56;4974472;28;20017;-48
2023/01/26 08:51:35;;;;;;;;;;;;;;;2.41;86.69;102553.50;4976807;28;19918;-49
2023/01/26 08:54:00;;;;;;;;;;;;;;;2.39;87.09;102560.09;4976408;28;19918;-50
2023/01/26 08:56:25;;;;;;;;;;;;;;;2.41;86.96;102562.00;4972643;28;19922;-49
2023/01/26 08:58:51;;;;;;;;;;;;;;;2.43;86.84;102557.09;4971274;28;19929;-45
2023/01/26 09:01:16;;;;;;;;;;;;;;;2.44;86.97;102551.25;4970958;28;19922;-49
2023/01/26 09:03:42;;;;;;;;;;;;;;;2.45;87.22;102555.56;4977060;28;20008;-48
2023/01/26 09:06:08;;;;;;;;;;;;;;;2.47;87.25;102558.22;4967138;28;20060;-50
2023/01/26 09:08:33;;;;;;;;;;;;;;;2.48;87.24;102552.38;4965563;28;19987;-49
2023/01/26 09:10:59;;;;;;;;;;;;;;;2.50;87.41;102556.84;5000059;28;20462;-49
2023/01/26 09:13:24;;;;;;;;;;;;;;;2.53;87.29;102556.22;4977451;28;19922;-48
2023/01/26 09:15:50;;;;;;;;;;;;;;;2.55;87.38;102555.63;4986890;28;20298;-50
2023/01/26 09:18:15;;;;;;;;;;;;;;;2.55;87.33;102560.69;4968394;28;20419;-49
2023/01/26 09:20:40;;;;;;;;;;;;;;;2.54;87.34;102568.16;4979932;28;19968;-49
2023/01/26 09:23:06;;;;;;;;;;;;;;;2.55;87.44;102575.94;4983620;28;19922;-51
2023/01/26 09:25:31;;;;;;;;;;;;;;;2.55;87.28;102575.00;4999231;28;20300;-46
2023/01/26 09:27:56;;;;;;;;;;;;;;;2.57;87.23;102574.41;4973378;28;19949;-49
2023/01/26 09:30:23;;;;;;;;;;;;;;;2.56;87.85;102572.63;4972970;28;19922;-49
2023/01/26 09:32:49;;;;;;;;;;;;;;;2.59;87.69;102580.50;4970433;28;19919;-48
2023/01/26 09:35:14;;;;;;;;;;;;;;;2.58;87.84;102572.75;4974843;28;20028;-49
2023/01/26 09:37:39;;;;;;;;;;;;;;;2.59;87.94;102569.47;4972931;28;19971;-49
2023/01/26 09:40:05;;;;;;;;;;;;;;;2.61;88.08;102580.66;4969785;28;19983;-48
2023/01/26 09:42:30;;;;;;;;;;;;;;;2.63;88.14;102582.56;4994025;28;20011;-48
2023/01/26 09:45:11;;;;;;;;;;;;;;;2.62;87.85;102578.25;5006932;28;19980;-47
2023/01/26 09:47:50;;;;;;;;;;;;;;;2.63;87.84;102572.41;4979092;28;19929;-49
2023/01/26 09:50:22;;;;;;;;;;;;;;;2.64;87.90;102573.28;4974022;28;20625;-50
2023/01/26 09:52:55;;;;;;;;;;;;;;;2.66;88.36;102574.31;4978601;28;19918;-47
2023/01/26 09:55:22;;;;;;;;;;;;;;;2.71;88.27;102575.59;4976966;28;19996;-49
2023/01/26 09:57:54;;;;;;;;;;;;;;;2.72;88.18;102572.28;4969909;28;20378;-49
2023/01/26 10:00:51;;;;;;;;;;;;;;;2.73;88.19;102576.66;4991775;28;19916;-46
2023/01/26 10:03:31;;;;;;;;;;;;;;;2.77;88.43;102573.59;4960494;28;19961;-48
2023/01/26 10:06:06;;;;;;;;;;;;;;;2.80;88.25;102575.53;4962125;28;20294;-46
2023/01/26 10:08:31;;;;;;;;;;;;;;;2.81;88.30;102572.22;4965932;28;19922;-49
2023/01/26 10:10:59;;;;;;;;;;;;;;;2.83;88.47;102574.13;4968075;28;21096;-43
2023/01/26 10:13:25;;;;;;;;;;;;;;;2.85;88.71;102571.69;4971113;28;19924;-49
2023/01/26 10:15:56;;;;;;;;;;;;;;;2.87;88.63;102571.09;4963584;28;19922;-48
2023/01/26 10:18:47;;;;;;;;;;;;;;;2.89;88.56;102566.13;4968590;28;19919;-50
2023/01/26 10:21:14;;;;;;;;;;;;;;;2.92;89.20;102562.22;4974034;28;20355;-48
2023/01/26 10:23:45;;;;;;;;;;;;;;;2.95;89.30;102564.13;4961349;28;19960;-47
2023/01/26 10:26:18;;;;;;;;;;;;;;;2.98;89.60;102571.13;4971208;28;20386;-48
2023/01/26 10:28:44;;;;;;;;;;;;;;;2.99;89.87;102571.25;4989951;28;20468;-50
2023/01/26 10:31:17;;;;;;;;;;;;;;;3.03;89.77;102575.81;4968793;28;20367;-51
2023/01/26 10:33:56;;;;;;;;;;;;;;;3.05;90.13;102574.31;4968304;28;20018;-45
2023/01/26 10:36:22;;;;;;;;;;;;;;;3.07;90.60;102577.88;4972625;28;20379;-49
2023/01/26 10:38:47;;;;;;;;;;;;;;;3.10;90.88;102580.69;4988805;28;19933;-45
2023/01/26 10:41:12;;;;;;;;;;;;;;;3.11;91.56;102577.41;4990196;28;20417;-48
2023/01/26 10:43:40;;;;;;;;;;;;;;;3.14;91.61;102576.75;4984133;28;20049;-51
2023/01/26 10:46:05;;;;;;;;;;;;;;;3.16;91.69;102578.69;4966480;28;19922;-49
2023/01/26 10:48:31;;;;;;;;;;;;;;;3.20;91.92;102574.72;4987191;28;19999;-48
2023/01/26 10:51:13;;;;;;;;;;;;;;;3.22;92.16;102579.19;4972001;28;20306;-49
2023/01/26 10:53:38;;;;;;;;;;;;;;;3.27;92.40;102578.69;4973546;28;19918;-50
2023/01/26 10:56:06;;;;;;;;;;;;;;;3.32;92.22;102579.97;4963941;28;19922;-46
2023/01/26 10:58:40;;;;;;;;;;;;;;;3.37;92.85;102577.03;4966235;28;20329;-49
2023/01/26 11:01:11;;;;;;;;;;;;;;;3.42;93.09;102574.91;4967075;28;20310;-48
2023/01/26 11:03:36;;;;;;;;;;;;;;;3.47;93.37;102571.09;4976378;28;19920;-50
2023/01/26 11:06:06;;;;;;;;;;;;;;;3.52;93.93;102567.28;4968393;28;19926;-48
2023/01/26 11:08:36;;;;;;;;;;;;;;;3.59;94.01;102564.47;4966849;28;19931;-46
2023/01/26 11:11:02;;;;;;;;;;;;;;;3.66;94.45;102558.25;4967419;28;20012;-51
2023/01/26 11:13:27;;;;;;;;;;;;;;;3.76;94.47;102558.22;4983939;28;20357;-48
2023/01/26 11:16:01;;;;;;;;;;;;;;;3.85;94.87;102563.19;4965150;28;19965;-48
2023/01/26 11:18:41;;;;;;;;;;;;;;;3.93;95.07;102562.16;4976584;28;19976;-49
2023/01/26 11:21:22;;;;;;;;;;;;;;;4.02;95.09;102555.28;4968295;28;19972;-47
2023/01/26 11:23:50;;;;;;;;;;;;;;;4.11;95.29;102566.19;4973803;28;19918;-50
2023/01/26 11:26:15;;;;;;;;;;;;;;;4.18;95.22;102563.38;4966177;28;19922;-44
2023/01/26 11:28:40;;;;;;;;;;;;;;;4.25;95.45;102564.78;4953239;28;20447;-47
2023/01/26 11:31:05;;;;;;;;;;;;;;;4.33;nan;102579.03;4983363;28;19969;-49
2023/01/26 11:33:40;;;;;;;;;;;;;;;4.39;95.69;102565.88;4971166;28;19926;-49
2023/01/26 11:36:12;;;;;;;;;;;;;;;4.45;95.82;102567.28;4966350;28;19922;-48
2023/01/26 11:38:42;;;;;;;;;;;;;;;4.51;96.51;102562.66;4971630;28;20001;-50
2023/01/26 11:41:13;;;;;;;;;;;;;;;4.57;96.06;102558.06;4984361;28;19944;-48
2023/01/26 11:43:38;;;;;;;;;;;;;;;4.65;96.43;102555.22;4973641;28;19925;-46
2023/01/26 11:46:20;;;;;;;;;;;;;;;4.72;96.56;102549.81;4994077;28;20286;-47
2023/01/26 11:48:54;;;;;;;;;;;;;;;4.80;96.49;102547.13;4973846;28;19918;-47
2023/01/26 11:51:28;;;;;;;;;;;;;;;4.92;96.64;102541.22;4972766;28;19918;-49
2023/01/26 11:53:59;;;;;;;;;;;;;;;5.01;97.12;102547.00;4970484;28;19967;-48
2023/01/26 11:56:25;;;;;;;;;;;;;;;5.09;98.06;102538.28;4965877;28;20013;-49
2023/01/26 11:58:59;;;;;;;;;;;;;;;5.15;98.15;102536.19;4983691;28;20470;-49
2023/01/26 12:01:36;;;;;;;;;;;;;;;5.22;98.41;102538.47;4994158;28;19930;-48
2023/01/26 12:04:02;;;;;;;;;;;;;;;5.28;99.92;102538.94;4990738;28;20377;-50
2023/01/26 12:06:36;;;;;;;;;;;;;;;5.32;100.00;102535.81;4976586;28;19986;-49
2023/01/26 12:09:04;;;;;;;;;;;;;;;5.35;99.84;102536.06;4979410;28;20443;-48
2023/01/26 12:11:41;;;;;;;;;;;;;;;5.38;99.04;102528.63;4970694;28;19961;-52
2023/01/26 12:14:24;;;;;;;;;;;;;;;5.41;99.19;102519.44;4970590;28;19917;-48
2023/01/26 12:16:57;;;;;;;;;;;;;;;5.47;100.00;102522.47;4968149;28;19933;-48
2023/01/26 12:19:41;;;;;;;;;;;;;;;5.49;100.00;102519.22;4967830;28;19918;-48
2023/01/26 12:22:12;;;;;;;;;;;;;;;5.53;100.00;102520.38;5008869;28;19924;-49
2023/01/26 12:24:42;;;;;;;;;;;;;;;5.57;100.00;102518.13;4973631;28;20254;-48
2023/01/26 12:27:13;;;;;;;;;;;;;;;5.64;100.00;102511.81;4971714;28;20541;-50
2023/01/26 12:29:46;;;;;;;;;;;;;;;5.73;100.00;102506.53;4973703;28;20004;-48
2023/01/26 12:32:13;;;;;;;;;;;;;;;5.82;100.00;102502.97;4969408;28;19924;-47
2023/01/26 12:34:38;;;;;;;;;;;;;;;5.88;100.00;102516.22;4975708;28;20401;-49
2023/01/26 12:37:13;;;;;;;;;;;;;;;5.89;100.00;102500.09;4976543;28;19930;-50
2023/01/26 12:39:43;;;;;;;;;;;;;;;5.95;100.00;102486.06;4981852;28;19925;-46
2023/01/26 12:42:11;;;;;;;;;;;;;;;6.01;100.00;102487.38;4978743;28;20017;-49
2023/01/26 12:44:41;;;;;;;;;;;;;;;6.09;100.00;102488.81;4983832;28;19960;-49
2023/01/26 12:47:18;;;;;;;;;;;;;;;6.16;100.00;102485.03;4973276;28;20425;-48
2023/01/26 12:50:03;;;;;;;;;;;;;;;6.24;100.00;102477.91;5000713;28;19941;-49
2023/01/26 12:52:36;;;;;;;;;;;;;;;6.32;100.00;102476.81;4953418;28;19926;-50
2023/01/26 12:55:19;;;;;;;;;;;;;;;6.37;99.77;102486.56;4973807;28;20399;-45
2023/01/26 12:58:04;;;;;;;;;;;;;;;6.41;99.21;102475.75;4985380;28;20477;-48
2023/01/26 13:00:34;;;;;;;;;;;;;;;6.45;98.75;102482.00;4967466;28;19918;-48
2023/01/26 13:03:18;;;;;;;;;;;;;;;6.47;98.86;102475.31;4969296;28;20358;-49
2023/01/26 13:05:55;;;;;;;;;;;;;;;6.47;98.67;102472.75;4968289;28;19934;-51
2023/01/26 13:08:29;;;;;;;;;;;;;;;6.50;98.13;102470.44;4964876;28;19940;-50
2023/01/26 13:10:55;;;;;;;;;;;;;;;6.53;97.60;102474.84;4968474;28;19943;-50
2023/01/26 13:13:29;;;;;;;;;;;;;;;6.55;97.32;102476.75;4978113;28;20336;-46
2023/01/26 13:16:12;;;;;;;;;;;;;;;6.60;97.14;102471.94;4967479;28;20475;-48
2023/01/26 13:18:54;;;;;;;;;;;;;;;6.64;97.67;102467.16;4996224;28;20063;-50
2023/01/26 13:21:34;;;;;;;;;;;;;;;6.66;95.58;102473.25;4987299;28;20001;-49
2023/01/26 13:23:59;;;;;;;;;;;;;;;6.66;94.57;102467.25;4986087;28;19926;-50
2023/01/26 13:26:30;;;;;;;;;;;;;;;6.63;93.38;102472.16;4967049;28;19926;-48
2023/01/26 13:29:16;;;;;;;;;;;;;;;6.62;93.96;102471.28;4977695;28;19926;-50
2023/01/26 13:31:41;;;;;;;;;;;;;;;6.61;94.30;102463.47;4969123;28;19964;-48
2023/01/26 13:34:07;;;;;;;;;;;;;;;6.61;94.57;102466.03;4969474;28;20698;-48